createdAt,value
2023-03-10T00:01:21.769Z,0.57
2023-03-10T00:03:49.788Z,0.70
2023-03-10T00:06:20.460Z,0.57
2023-03-10T00:08:47.721Z,0.63
2023-03-10T00:11:15.679Z,0.40
2023-03-10T00:13:43.103Z,0.70
2023-03-10T00:16:18.102Z,0.70
2023-03-10T00:18:46.476Z,0.77
2023-03-10T00:21:16.542Z,0.70
2023-03-10T00:23:44.221Z,0.70
2023-03-10T00:26:18.897Z,0.67
2023-03-10T00:28:46.705Z,0.70
2023-03-10T00:31:23.172Z,0.80
2023-03-10T00:33:52.366Z,0.70
2023-03-10T00:36:26.492Z,0.50
2023-03-10T00:38:55.118Z,0.67
2023-03-10T00:41:26.353Z,0.50
2023-03-10T00:43:53.497Z,0.63
2023-03-10T00:46:21.105Z,0.47
2023-03-10T00:48:48.601Z,0.63
2023-03-10T00:51:16.168Z,0.43
2023-03-10T00:53:44.050Z,0.60
2023-03-10T00:56:22.420Z,0.47
2023-03-10T00:58:59.007Z,0.53
2023-03-10T01:01:30.965Z,0.40
2023-03-10T01:04:00.353Z,0.40
2023-03-10T01:06:28.193Z,0.73
2023-03-10T01:08:55.669Z,0.50
2023-03-10T01:11:26.231Z,0.57
2023-03-10T01:13:55.956Z,0.50
2023-03-10T01:16:23.588Z,0.47
2023-03-10T01:18:51.028Z,0.73
2023-03-10T01:21:24.080Z,0.70
2023-03-10T01:23:52.019Z,0.50
2023-03-10T01:26:19.752Z,0.70
2023-03-10T01:28:48.007Z,0.50
2023-03-10T01:31:16.077Z,0.70
2023-03-10T01:33:43.585Z,0.43
2023-03-10T01:36:13.326Z,0.40
2023-03-10T01:38:40.509Z,0.50
2023-03-10T01:41:08.018Z,0.50
2023-03-10T01:43:40.425Z,0.77
2023-03-10T01:46:44.937Z,0.60
2023-03-10T01:49:18.301Z,0.73
2023-03-10T01:51:50.832Z,0.60
2023-03-10T01:54:23.104Z,0.63
2023-03-10T01:56:52.189Z,0.80
2023-03-10T01:59:20.772Z,0.60
2023-03-10T02:01:50.596Z,0.70
2023-03-10T02:04:35.559Z,0.70
2023-03-10T02:07:05.304Z,0.70
2023-03-10T02:09:35.390Z,0.60
2023-03-10T02:12:04.993Z,0.77
2023-03-10T02:14:32.860Z,0.70
2023-03-10T02:17:00.331Z,1.03
2023-03-10T02:19:38.796Z,1.10
2023-03-10T02:22:09.887Z,1.20
2023-03-10T02:25:08.271Z,1.00
2023-03-10T02:27:38.491Z,1.00
2023-03-10T02:30:11.462Z,1.47
2023-03-10T02:32:45.827Z,1.40
2023-03-10T02:35:12.974Z,1.00
2023-03-10T02:37:40.369Z,1.30
2023-03-10T02:40:34.071Z,1.50
2023-03-10T02:43:05.773Z,1.40
2023-03-10T02:45:37.738Z,1.30
2023-03-10T02:48:05.129Z,1.60
2023-03-10T02:50:37.231Z,1.60
2023-03-10T02:53:25.806Z,1.90
2023-03-10T02:55:53.714Z,1.90
2023-03-10T02:58:24.546Z,1.53
2023-03-10T03:00:52.247Z,2.00
2023-03-10T03:03:21.206Z,2.03
2023-03-10T03:05:49.734Z,1.80
2023-03-10T03:08:17.923Z,2.00
2023-03-10T03:10:45.800Z,2.22
2023-03-10T03:13:13.185Z,2.40
2023-03-10T03:15:40.639Z,2.10
2023-03-10T03:18:08.490Z,2.30
2023-03-10T03:20:37.315Z,2.37
2023-03-10T03:23:04.760Z,2.17
2023-03-10T03:25:37.188Z,2.20
2023-03-10T03:28:06.283Z,1.87
2023-03-10T03:30:34.128Z,2.07
2023-03-10T03:33:03.755Z,2.10
2023-03-10T03:35:34.571Z,2.43
2023-03-10T03:38:03.711Z,2.20
2023-03-10T03:40:36.397Z,2.27
2023-03-10T03:43:04.460Z,2.33
2023-03-10T03:45:32.744Z,2.10
2023-03-10T03:48:00.715Z,1.90
2023-03-10T03:50:28.164Z,1.87
2023-03-10T03:52:55.275Z,1.70
2023-03-10T03:55:22.378Z,2.10
2023-03-10T03:57:49.922Z,2.50
2023-03-10T04:00:23.063Z,1.97
2023-03-10T04:02:50.670Z,1.73
2023-03-10T04:05:18.465Z,2.23
2023-03-10T04:07:46.271Z,2.17
2023-03-10T04:10:18.559Z,2.10
2023-03-10T04:12:45.659Z,1.97
2023-03-10T04:15:13.692Z,1.87
2023-03-10T04:17:41.868Z,2.30
2023-03-10T04:20:11.132Z,2.57
2023-03-10T04:22:38.300Z,2.30
2023-03-10T04:25:06.885Z,2.07
2023-03-10T04:27:34.431Z,2.23
2023-03-10T04:30:01.558Z,2.10
2023-03-10T04:32:28.698Z,2.03
2023-03-10T04:34:56.175Z,1.80
2023-03-10T04:37:23.447Z,1.60
2023-03-10T04:39:50.544Z,1.33
2023-03-10T04:42:17.624Z,1.27
2023-03-10T04:44:45.188Z,1.20
2023-03-10T04:47:12.587Z,1.60
2023-03-10T04:49:39.736Z,1.67
2023-03-10T04:52:07.366Z,1.80
2023-03-10T04:54:34.651Z,1.80
2023-03-10T04:57:02.108Z,1.43
2023-03-10T04:59:29.608Z,1.30
2023-03-10T05:01:56.841Z,1.50
2023-03-10T05:04:24.081Z,1.60
2023-03-10T05:06:54.344Z,1.47
2023-03-10T05:09:21.645Z,1.80
2023-03-10T05:11:49.102Z,1.60
2023-03-10T05:14:16.809Z,1.70
2023-03-10T05:16:44.551Z,1.53
2023-03-10T05:19:11.951Z,1.63
2023-03-10T05:21:39.073Z,1.30
2023-03-10T05:24:06.496Z,1.37
2023-03-10T05:26:34.904Z,1.50
2023-03-10T05:29:02.400Z,1.57
2023-03-10T05:31:29.644Z,1.50
2023-03-10T05:33:57.533Z,1.40
2023-03-10T05:36:24.685Z,1.20
2023-03-10T05:38:51.859Z,1.37
2023-03-10T05:41:19.427Z,1.30
2023-03-10T05:43:46.861Z,1.40
2023-03-10T05:46:14.253Z,1.50
2023-03-10T05:48:41.390Z,1.50
2023-03-10T05:51:11.338Z,1.27
2023-03-10T05:53:39.674Z,1.13
2023-03-10T05:56:16.040Z,1.30
2023-03-10T05:58:44.385Z,1.57
2023-03-10T06:01:11.918Z,1.30
2023-03-10T06:03:39.551Z,1.40
2023-03-10T06:06:07.736Z,1.17
2023-03-10T06:08:35.485Z,1.50
2023-03-10T06:11:03.278Z,1.73
2023-03-10T06:13:31.464Z,1.63
2023-03-10T06:16:04.616Z,2.23
2023-03-10T06:18:32.873Z,1.97
2023-03-10T06:21:00.271Z,1.97
2023-03-10T06:23:27.776Z,2.00
2023-03-10T06:26:02.459Z,2.10
2023-03-10T06:28:33.491Z,1.80
2023-03-10T06:31:02.044Z,1.70
2023-03-10T06:33:30.436Z,2.20
2023-03-10T06:35:58.341Z,1.80
2023-03-10T06:38:26.113Z,2.07
2023-03-10T06:40:53.538Z,2.03
2023-03-10T06:43:21.156Z,2.27
2023-03-10T06:45:49.548Z,1.90
2023-03-10T06:48:17.348Z,2.40
2023-03-10T06:50:48.419Z,2.10
2023-03-10T06:53:20.275Z,2.40
2023-03-10T06:56:02.495Z,2.03
2023-03-10T06:58:31.560Z,2.10
2023-03-10T07:00:58.934Z,1.90
2023-03-10T07:03:29.155Z,1.87
2023-03-10T07:05:59.876Z,1.97
2023-03-10T07:08:28.762Z,2.03
2023-03-10T07:10:56.539Z,1.80
2023-03-10T07:13:23.781Z,1.93
2023-03-10T07:15:51.202Z,1.47
2023-03-10T07:18:18.365Z,1.70
2023-03-10T07:20:46.006Z,1.53
2023-03-10T07:23:13.798Z,1.57
2023-03-10T07:25:41.123Z,1.40
2023-03-10T07:28:08.513Z,1.30
2023-03-10T07:30:36.938Z,1.60
2023-03-10T07:33:04.557Z,1.57
2023-03-10T07:35:35.436Z,1.50
2023-03-10T07:38:04.552Z,1.80
2023-03-10T07:40:33.056Z,1.57
2023-03-10T07:43:00.587Z,1.40
2023-03-10T07:45:31.045Z,1.57
2023-03-10T07:47:58.159Z,1.60
2023-03-10T07:50:25.285Z,1.60
2023-03-10T07:52:52.604Z,1.70
2023-03-10T07:55:19.742Z,1.70
2023-03-10T07:57:47.117Z,1.70
2023-03-10T08:00:15.055Z,1.30
2023-03-10T08:02:43.172Z,1.37
2023-03-10T08:05:11.076Z,1.30
2023-03-10T08:07:40.190Z,1.53
2023-03-10T08:10:08.434Z,1.30
2023-03-10T08:12:36.013Z,1.30
2023-03-10T08:15:05.071Z,1.20
2023-03-10T08:17:33.805Z,1.10
2023-03-10T08:20:01.373Z,1.10
2023-03-10T08:22:28.606Z,1.03
2023-03-10T08:24:56.396Z,0.90
2023-03-10T08:27:23.944Z,0.80
2023-03-10T08:29:51.341Z,0.80
2023-03-10T08:32:19.965Z,0.90
2023-03-10T08:34:47.400Z,0.60
2023-03-10T08:37:15.037Z,0.80
2023-03-10T08:39:42.722Z,1.10
2023-03-10T08:42:13.912Z,0.80
2023-03-10T08:44:41.811Z,1.10
2023-03-10T08:47:09.433Z,0.73
2023-03-10T08:49:37.171Z,1.00
2023-03-10T08:52:04.932Z,0.80
2023-03-10T08:54:32.785Z,0.90
2023-03-10T08:57:01.277Z,0.87
2023-03-10T08:59:29.008Z,0.90
2023-03-10T09:01:56.500Z,0.80
2023-03-10T09:04:23.691Z,0.70
2023-03-10T09:06:50.928Z,0.97
2023-03-10T09:09:18.349Z,0.90
2023-03-10T09:11:45.940Z,1.00
2023-03-10T09:14:17.079Z,1.00
2023-03-10T09:16:45.204Z,1.00
2023-03-10T09:19:12.474Z,1.00
2023-03-10T09:21:40.157Z,0.90
2023-03-10T09:24:07.411Z,0.57
2023-03-10T09:26:34.793Z,1.03
2023-03-10T09:29:03.067Z,0.90
2023-03-10T09:31:33.281Z,0.80
2023-03-10T09:34:02.494Z,0.90
2023-03-10T09:36:29.933Z,0.90
2023-03-10T09:39:01.405Z,0.80
2023-03-10T09:41:48.344Z,1.07
2023-03-10T09:44:27.640Z,1.13
2023-03-10T09:47:04.006Z,1.37
2023-03-10T09:49:51.591Z,1.00
2023-03-10T09:52:46.735Z,1.17
2023-03-10T09:55:48.481Z,1.10
2023-03-10T09:58:39.827Z,1.20
2023-03-10T10:01:15.804Z,1.20
2023-03-10T10:03:59.996Z,0.80
2023-03-10T10:06:32.847Z,1.07
2023-03-10T10:09:23.993Z,1.30
2023-03-10T10:11:51.750Z,0.90
2023-03-10T10:14:30.380Z,0.90
2023-03-10T10:17:10.710Z,0.90
2023-03-10T10:19:40.710Z,1.10
2023-03-10T10:22:27.988Z,0.93
2023-03-10T10:25:13.345Z,0.90
2023-03-10T10:27:42.871Z,1.10
2023-03-10T10:30:31.297Z,0.90
2023-03-10T10:33:01.840Z,0.93
2023-03-10T10:35:32.178Z,1.00
2023-03-10T10:38:04.061Z,0.90
2023-03-10T10:40:36.989Z,1.03
2023-03-10T10:43:06.100Z,1.03
2023-03-10T10:45:36.783Z,1.00
2023-03-10T10:48:05.196Z,1.00
2023-03-10T10:50:35.458Z,0.97
2023-03-10T10:53:14.659Z,1.00
2023-03-10T10:55:43.148Z,1.00
2023-03-10T10:58:30.921Z,0.73
2023-03-10T11:01:01.249Z,1.00
2023-03-10T11:03:37.597Z,0.97
2023-03-10T11:06:30.266Z,0.70
2023-03-10T11:09:12.503Z,1.03
2023-03-10T11:12:28.291Z,1.13
2023-03-10T11:15:23.398Z,1.20
2023-03-10T11:18:04.869Z,1.40
2023-03-10T11:20:58.726Z,1.03
2023-03-10T11:23:38.070Z,0.90
2023-03-10T11:26:36.358Z,1.07
2023-03-10T11:29:24.619Z,1.03
2023-03-10T11:32:22.026Z,1.10
2023-03-10T11:34:55.831Z,1.07
2023-03-10T11:37:58.343Z,1.20
2023-03-10T11:40:48.896Z,1.10
2023-03-10T11:43:33.782Z,1.07
2023-03-10T11:46:26.162Z,1.00
2023-03-10T11:48:59.141Z,1.10
2023-03-10T11:51:39.573Z,1.10
2023-03-10T11:54:31.755Z,0.90
2023-03-10T11:57:00.809Z,1.30
2023-03-10T11:59:30.912Z,1.27
2023-03-10T12:02:28.393Z,1.00
2023-03-10T12:05:02.118Z,1.10
2023-03-10T12:07:31.716Z,1.20
2023-03-10T12:10:02.825Z,1.00
2023-03-10T12:12:39.381Z,1.00
2023-03-10T12:15:12.167Z,1.10
2023-03-10T12:17:41.000Z,1.27
2023-03-10T12:20:13.934Z,1.27
2023-03-10T12:22:57.277Z,1.20
2023-03-10T12:25:30.319Z,0.90
2023-03-10T12:28:29.271Z,1.23
2023-03-10T12:31:02.254Z,1.30
2023-03-10T12:33:38.952Z,1.30
2023-03-10T12:36:15.419Z,1.60
2023-03-10T12:38:54.029Z,1.80
2023-03-10T12:41:27.112Z,1.50
2023-03-10T12:43:57.380Z,1.40
2023-03-10T12:46:39.389Z,1.40
2023-03-10T12:49:40.158Z,1.17
2023-03-10T12:52:07.392Z,1.20
2023-03-10T12:54:47.888Z,1.40
2023-03-10T12:57:30.970Z,1.07
2023-03-10T13:00:20.944Z,1.13
2023-03-10T13:02:54.329Z,1.07
2023-03-10T13:05:28.031Z,0.90
2023-03-10T13:08:01.174Z,1.13
2023-03-10T13:10:32.233Z,1.17
2023-03-10T13:13:04.709Z,1.40
2023-03-10T13:15:33.845Z,1.27
2023-03-10T13:18:23.138Z,1.47
2023-03-10T13:20:50.602Z,1.80
2023-03-10T13:23:32.811Z,1.30
2023-03-10T13:26:02.946Z,1.10
2023-03-10T13:28:34.733Z,1.70
2023-03-10T13:31:34.244Z,1.30
2023-03-10T13:34:20.577Z,1.30
2023-03-10T13:36:48.664Z,1.33
2023-03-10T13:39:19.269Z,1.40
2023-03-10T13:41:51.958Z,1.50
2023-03-10T13:44:20.961Z,1.53
2023-03-10T13:46:58.873Z,1.80
2023-03-10T13:49:29.203Z,1.47
2023-03-10T13:52:05.870Z,1.40
2023-03-10T13:54:35.326Z,1.13
2023-03-10T13:57:08.616Z,1.17
2023-03-10T13:59:36.872Z,1.20
2023-03-10T14:02:05.268Z,1.10
2023-03-10T14:04:50.180Z,1.30
2023-03-10T14:07:31.791Z,1.00
2023-03-10T14:10:05.102Z,0.90
2023-03-10T14:12:41.158Z,1.17
2023-03-10T14:15:23.428Z,1.00
2023-03-10T14:17:53.713Z,1.00
2023-03-10T14:20:31.072Z,0.90
2023-03-10T14:22:58.762Z,0.90
2023-03-10T14:25:26.646Z,1.00
2023-03-10T14:28:13.028Z,1.20
2023-03-10T14:30:43.985Z,1.10
2023-03-10T14:33:16.247Z,1.20
2023-03-10T14:35:46.268Z,1.40
2023-03-10T14:38:13.702Z,1.30
2023-03-10T14:40:47.584Z,1.20
2023-03-10T14:43:20.893Z,1.20
2023-03-10T14:45:49.698Z,1.20
2023-03-10T14:48:20.103Z,1.30
2023-03-10T14:50:48.175Z,1.20
2023-03-10T14:53:17.511Z,1.27
2023-03-10T14:55:50.039Z,1.00
2023-03-10T14:58:20.575Z,1.20
2023-03-10T15:00:48.643Z,1.20
2023-03-10T15:03:16.485Z,1.20
2023-03-10T15:05:48.577Z,1.10
2023-03-10T15:08:17.281Z,1.17
2023-03-10T15:10:50.881Z,1.33
2023-03-10T15:13:21.764Z,1.10
2023-03-10T15:15:49.747Z,1.40
2023-03-10T15:18:20.165Z,1.03
2023-03-10T15:20:47.396Z,1.23
2023-03-10T15:23:18.028Z,1.10
2023-03-10T15:25:46.415Z,1.10
2023-03-10T15:28:13.839Z,1.10
2023-03-10T15:30:41.077Z,0.93
2023-03-10T15:33:08.353Z,1.10
2023-03-10T15:35:35.631Z,1.00
2023-03-10T15:38:02.895Z,1.17
2023-03-10T15:40:32.788Z,1.20
2023-03-10T15:43:00.565Z,1.00
2023-03-10T15:45:30.230Z,0.83
2023-03-10T15:47:58.689Z,1.27
2023-03-10T15:50:26.722Z,1.10
2023-03-10T15:52:57.157Z,0.70
2023-03-10T15:55:25.441Z,0.83
2023-03-10T15:57:52.954Z,0.80
2023-03-10T16:00:22.348Z,0.90
2023-03-10T16:02:50.900Z,0.83
2023-03-10T16:05:19.280Z,0.90
2023-03-10T16:07:46.758Z,0.90
2023-03-10T16:10:17.692Z,0.80
2023-03-10T16:12:45.083Z,1.20
2023-03-10T16:15:12.667Z,0.97
2023-03-10T16:17:40.562Z,1.17
2023-03-10T16:20:12.336Z,0.93
2023-03-10T16:22:43.553Z,1.30
2023-03-10T16:25:16.123Z,0.90
2023-03-10T16:27:44.997Z,1.10
2023-03-10T16:30:13.827Z,1.30
2023-03-10T16:32:45.368Z,0.87
2023-03-10T16:35:12.573Z,1.00
2023-03-10T16:37:40.357Z,0.80
2023-03-10T16:40:08.713Z,1.10
2023-03-10T16:42:37.089Z,1.10
2023-03-10T16:45:06.566Z,1.00
2023-03-10T16:47:34.177Z,1.00
2023-03-10T16:50:01.416Z,1.10
2023-03-10T16:52:28.864Z,1.00
2023-03-10T16:55:02.123Z,1.30
2023-03-10T16:57:29.555Z,1.10
2023-03-10T16:59:59.600Z,1.10
2023-03-10T17:02:28.054Z,1.00
2023-03-10T17:04:55.712Z,0.87
2023-03-10T17:07:22.872Z,0.93
2023-03-10T17:09:50.233Z,1.00
2023-03-10T17:12:17.840Z,1.10
2023-03-10T17:14:45.085Z,1.13
2023-03-10T17:17:13.107Z,1.00
2023-03-10T17:19:40.562Z,1.03
2023-03-10T17:22:08.131Z,0.90
2023-03-10T17:24:35.219Z,1.20
2023-03-10T17:27:02.376Z,0.80
2023-03-10T17:29:31.924Z,1.00
2023-03-10T17:31:59.786Z,1.10
2023-03-10T17:34:29.497Z,1.07
2023-03-10T17:36:56.612Z,0.97
2023-03-10T17:39:24.407Z,0.90
2023-03-10T17:41:51.792Z,0.90
2023-03-10T17:44:19.858Z,0.90
2023-03-10T17:46:47.510Z,0.77
2023-03-10T17:49:16.591Z,1.00
2023-03-10T17:51:44.819Z,0.97
2023-03-10T17:54:26.528Z,1.00
2023-03-10T17:56:54.063Z,0.90
2023-03-10T17:59:21.334Z,0.87
2023-03-10T18:01:49.692Z,1.10
2023-03-10T18:04:18.863Z,0.80
2023-03-10T18:06:46.342Z,1.00
2023-03-10T18:09:15.782Z,0.80
2023-03-10T18:11:43.336Z,0.93
2023-03-10T18:14:11.518Z,0.90
2023-03-10T18:16:42.738Z,0.80
2023-03-10T18:19:11.149Z,0.80
2023-03-10T18:21:39.762Z,0.80
2023-03-10T18:24:09.263Z,0.93
2023-03-10T18:26:38.919Z,0.93
2023-03-10T18:29:06.692Z,0.90
2023-03-10T18:31:34.701Z,0.70
2023-03-10T18:34:02.882Z,1.07
2023-03-10T18:36:30.748Z,1.00
2023-03-10T18:39:01.085Z,0.90
2023-03-10T18:41:36.586Z,1.00
2023-03-10T18:44:06.019Z,1.10
2023-03-10T18:46:33.247Z,1.30
2023-03-10T18:49:01.153Z,1.20
2023-03-10T18:51:29.428Z,1.10
2023-03-10T18:53:59.972Z,1.20
2023-03-10T18:56:29.975Z,1.03
2023-03-10T18:58:58.261Z,1.10
2023-03-10T19:01:27.552Z,1.40
2023-03-10T19:03:57.858Z,1.10
2023-03-10T19:06:34.556Z,1.40
2023-03-10T19:09:04.928Z,1.20
2023-03-10T19:11:40.163Z,1.13
2023-03-10T19:14:08.001Z,1.30
2023-03-10T19:16:43.017Z,1.27
2023-03-10T19:19:15.838Z,1.37
2023-03-10T19:21:46.502Z,1.33
2023-03-10T19:24:16.832Z,1.27
2023-03-10T19:26:45.916Z,1.33
2023-03-10T19:29:14.841Z,1.30
2023-03-10T19:31:42.191Z,1.57
2023-03-10T19:34:10.450Z,1.23
2023-03-10T19:36:39.674Z,1.33
2023-03-10T19:39:08.033Z,1.43
2023-03-10T19:41:36.565Z,1.60
2023-03-10T19:44:10.507Z,1.40
2023-03-10T19:46:46.808Z,1.40
2023-03-10T19:49:14.547Z,1.07
2023-03-10T19:51:41.823Z,1.30
2023-03-10T19:54:09.415Z,1.93
2023-03-10T19:56:37.064Z,1.60
2023-03-10T19:59:09.684Z,1.90
2023-03-10T20:01:46.022Z,1.87
2023-03-10T20:04:17.459Z,1.73
2023-03-10T20:06:50.812Z,2.00
2023-03-10T20:09:20.242Z,1.90
2023-03-10T20:11:47.816Z,1.90
2023-03-10T20:14:18.467Z,2.20
2023-03-10T20:16:52.257Z,2.00
2023-03-10T20:19:27.919Z,2.33
2023-03-10T20:22:03.022Z,1.60
2023-03-10T20:24:31.064Z,1.70
2023-03-10T20:27:02.246Z,1.90
2023-03-10T20:29:30.396Z,1.70
2023-03-10T20:31:59.138Z,1.97
2023-03-10T20:34:26.332Z,2.20
2023-03-10T20:36:56.683Z,4.30
2023-03-10T20:39:29.104Z,2.20
2023-03-10T20:41:56.872Z,2.03
2023-03-10T20:44:31.390Z,2.37
2023-03-10T20:47:01.003Z,2.60
2023-03-10T20:49:29.985Z,2.00
2023-03-10T20:51:57.889Z,1.80
2023-03-10T20:54:40.188Z,2.70
2023-03-10T20:57:08.634Z,1.90
2023-03-10T20:59:40.516Z,1.90
2023-03-10T21:02:10.855Z,1.90
2023-03-10T21:04:38.965Z,1.77
2023-03-10T21:07:08.488Z,1.60
2023-03-10T21:09:36.184Z,1.73
2023-03-10T21:12:03.441Z,2.10
2023-03-10T21:14:30.575Z,1.80
2023-03-10T21:17:02.203Z,1.90
2023-03-10T21:19:32.224Z,1.60
2023-03-10T21:22:01.582Z,1.97
2023-03-10T21:24:30.715Z,1.53
2023-03-10T21:26:58.254Z,1.93
2023-03-10T21:29:25.986Z,1.80
2023-03-10T21:31:53.179Z,1.80
2023-03-10T21:34:20.234Z,1.67
2023-03-10T21:36:47.637Z,1.60
2023-03-10T21:39:15.089Z,1.90
2023-03-10T21:41:42.144Z,1.70
2023-03-10T21:44:10.765Z,1.67
2023-03-10T21:46:39.629Z,1.60
2023-03-10T21:49:07.506Z,1.73
2023-03-10T21:51:35.496Z,1.80
2023-03-10T21:54:03.831Z,1.67
2023-03-10T21:56:31.611Z,2.00
2023-03-10T21:58:58.917Z,1.90
2023-03-10T22:01:28.381Z,1.70
2023-03-10T22:03:55.723Z,1.73
2023-03-10T22:06:27.592Z,1.70
2023-03-10T22:08:55.901Z,2.00
2023-03-10T22:11:23.548Z,2.00
2023-03-10T22:13:53.598Z,2.13
2023-03-10T22:16:20.879Z,1.93
2023-03-10T22:18:49.563Z,1.80
2023-03-10T22:21:17.811Z,2.17
2023-03-10T22:23:45.676Z,1.87
2023-03-10T22:26:15.242Z,1.70
2023-03-10T22:28:47.669Z,2.10
2023-03-10T22:31:16.557Z,1.90
2023-03-10T22:33:43.688Z,2.20
2023-03-10T22:36:13.604Z,2.07
2023-03-10T22:38:41.216Z,1.93
2023-03-10T22:41:14.616Z,2.00
2023-03-10T22:43:42.889Z,2.00
2023-03-10T22:46:12.254Z,1.70
2023-03-10T22:48:41.470Z,1.73
2023-03-10T22:51:13.493Z,1.93
2023-03-10T22:53:40.826Z,1.90
2023-03-10T22:56:11.137Z,1.70
2023-03-10T22:58:46.056Z,1.60
2023-03-10T23:01:15.095Z,1.63
2023-03-10T23:03:43.300Z,1.20
2023-03-10T23:06:13.616Z,1.23
2023-03-10T23:08:43.876Z,1.37
2023-03-10T23:11:12.826Z,1.50
2023-03-10T23:13:41.005Z,1.57
2023-03-10T23:16:08.722Z,1.33
2023-03-10T23:18:35.926Z,1.47
2023-03-10T23:21:03.933Z,1.40
2023-03-10T23:23:31.972Z,1.37
2023-03-10T23:25:59.411Z,1.40
2023-03-10T23:28:26.714Z,1.50
2023-03-10T23:30:54.495Z,1.70
2023-03-10T23:33:24.010Z,1.57
2023-03-10T23:35:54.521Z,1.37
2023-03-10T23:38:24.256Z,1.40
2023-03-10T23:40:51.932Z,1.47
2023-03-10T23:43:19.465Z,1.27
2023-03-10T23:45:47.050Z,1.47
2023-03-10T23:48:16.575Z,1.20
2023-03-10T23:50:45.702Z,1.40
2023-03-10T23:53:14.410Z,1.30
2023-03-10T23:55:44.499Z,1.40
2023-03-10T23:58:13.272Z,1.50
